createdAt,value
2022-09-05T00:02:35.113Z,13.04
2022-09-05T00:05:21.078Z,13.08
2022-09-05T00:08:10.197Z,13.12
2022-09-05T00:11:18.047Z,13.11
2022-09-05T00:13:20.276Z,13.14
2022-09-05T00:16:09.772Z,13.19
2022-09-05T00:24:18.692Z,13.27
2022-09-05T00:24:27.479Z,13.23
2022-09-05T00:24:32.144Z,13.28
2022-09-05T00:26:54.702Z,13.31
2022-09-05T00:30:52.332Z,13.35
2022-09-05T00:32:40.215Z,13.40
2022-09-05T00:35:27.845Z,13.41
2022-09-05T00:37:59.635Z,13.46
2022-09-05T00:40:38.888Z,13.50
2022-09-05T00:43:14.364Z,13.51
2022-09-05T00:45:50.114Z,13.59
2022-09-05T00:48:54.948Z,13.56
2022-09-05T00:51:34.958Z,13.58
2022-09-05T00:54:13.724Z,13.62
2022-09-05T00:57:11.382Z,13.60
2022-09-05T01:00:10.740Z,13.62
2022-09-05T01:03:03.009Z,13.55
2022-09-05T01:05:59.164Z,13.53
2022-09-05T01:08:32.149Z,13.51
2022-09-05T01:11:10.835Z,13.60
2022-09-05T01:13:50.107Z,13.52
2022-09-05T01:16:37.741Z,13.60
2022-09-05T01:19:28.494Z,13.64
2022-09-05T01:22:04.145Z,13.73
2022-09-05T01:24:40.189Z,13.73
2022-09-05T01:28:22.305Z,13.80
2022-09-05T01:30:16.128Z,13.80
2022-09-05T01:33:05.966Z,13.81
2022-09-05T01:35:53.511Z,13.77
2022-09-05T01:38:40.592Z,13.77
2022-09-05T01:41:21.707Z,13.69
2022-09-05T01:44:23.529Z,13.81
2022-09-05T01:47:08.699Z,13.88
2022-09-05T01:50:02.234Z,13.92
2022-09-05T01:52:57.143Z,13.92
2022-09-05T01:56:04.825Z,13.91
2022-09-05T01:58:40.660Z,13.93
2022-09-05T02:01:33.339Z,14.01
2022-09-05T02:04:30.317Z,13.92
2022-09-05T02:07:19.245Z,13.92
2022-09-05T02:09:43.637Z,13.85
2022-09-05T02:12:19.325Z,13.90
2022-09-05T02:14:58.759Z,13.78
2022-09-05T02:17:51.103Z,13.78
2022-09-05T02:20:12.287Z,13.79
2022-09-05T02:22:48.166Z,13.75
2022-09-05T02:26:01.041Z,13.71
2022-09-05T02:28:06.122Z,13.68
2022-09-05T02:30:38.514Z,13.67
2022-09-05T02:33:29.531Z,13.66
2022-09-05T02:36:17.283Z,13.66
2022-09-05T02:43:30.340Z,13.60
2022-09-05T02:45:05.998Z,13.61
2022-09-05T02:45:09.926Z,13.55
2022-09-05T02:47:23.840Z,13.54
2022-09-05T02:53:49.632Z,13.67
2022-09-05T02:57:33.270Z,13.56
2022-09-05T02:57:41.588Z,13.41
2022-09-05T02:59:06.112Z,13.41
2022-09-05T03:01:27.278Z,13.46
2022-09-05T03:04:12.182Z,13.40
2022-09-05T03:07:03.089Z,13.30
2022-09-05T03:09:44.536Z,13.21
2022-09-05T03:12:46.445Z,13.28
2022-09-05T03:15:31.092Z,13.10
2022-09-05T03:18:33.370Z,13.10
2022-09-05T03:21:24.252Z,13.02
2022-09-05T03:24:00.037Z,12.98
2022-09-05T03:26:52.859Z,13.00
2022-09-05T03:29:42.031Z,13.05
2022-09-05T03:32:30.996Z,13.00
2022-09-05T03:35:28.250Z,13.06
2022-09-05T03:38:18.672Z,12.94
2022-09-05T03:40:54.445Z,12.96
2022-09-05T03:43:39.390Z,13.04
2022-09-05T03:46:21.739Z,13.04
2022-09-05T03:48:58.064Z,12.91
2022-09-05T03:57:10.927Z,12.91
2022-09-05T03:57:11.563Z,13.03
2022-09-05T03:57:42.315Z,13.04
2022-09-05T04:00:21.619Z,13.13
2022-09-05T04:08:14.319Z,13.14
2022-09-05T04:08:28.482Z,13.07
2022-09-05T04:08:38.815Z,13.20
2022-09-05T04:11:11.503Z,13.19
2022-09-05T04:13:56.329Z,13.24
2022-09-05T04:16:44.624Z,13.22
2022-09-05T04:19:34.316Z,13.20
2022-09-05T04:22:21.685Z,13.20
2022-09-05T04:24:57.597Z,13.27
2022-09-05T04:27:56.875Z,13.37
2022-09-05T04:30:50.880Z,13.26
2022-09-05T04:33:36.161Z,13.27
2022-09-05T04:36:00.973Z,13.27
2022-09-05T04:38:41.673Z,13.34
2022-09-05T04:41:17.182Z,13.25
2022-09-05T04:44:01.319Z,13.27
2022-09-05T04:46:48.242Z,13.37
2022-09-05T04:49:17.879Z,13.34
2022-09-05T04:52:30.358Z,13.36
2022-09-05T04:55:11.791Z,13.45
2022-09-05T04:58:01.208Z,13.49
2022-09-05T05:06:01.511Z,13.51
2022-09-05T05:06:01.928Z,13.53
2022-09-05T05:06:16.894Z,13.57
2022-09-05T05:08:46.262Z,13.68
2022-09-05T05:17:59.175Z,13.57
2022-09-05T05:18:07.630Z,13.73
2022-09-05T05:18:09.766Z,13.79
2022-09-05T05:20:42.915Z,13.91
2022-09-05T05:22:52.784Z,14.00
2022-09-05T05:25:23.532Z,13.95
2022-09-05T05:28:24.096Z,14.05
2022-09-05T05:30:46.508Z,14.12
2022-09-05T05:33:26.677Z,14.26
2022-09-05T05:36:00.500Z,14.44
2022-09-05T05:38:48.551Z,14.46
2022-09-05T05:41:33.360Z,14.58
2022-09-05T05:44:22.713Z,14.87
2022-09-05T05:46:58.267Z,14.87
2022-09-05T05:49:32.084Z,15.01
2022-09-05T05:52:19.685Z,14.98
2022-09-05T05:55:09.680Z,15.04
2022-09-05T05:57:32.451Z,15.11
2022-09-05T06:00:08.770Z,15.00
2022-09-05T06:03:24.953Z,15.12
2022-09-05T06:05:53.274Z,15.03
2022-09-05T06:14:52.832Z,14.98
2022-09-05T06:14:58.260Z,14.93
2022-09-05T06:15:04.946Z,15.01
2022-09-05T06:17:19.997Z,15.02
2022-09-05T06:21:38.955Z,15.26
2022-09-05T06:22:32.622Z,15.34
2022-09-05T06:25:23.742Z,15.30
2022-09-05T06:28:18.799Z,15.58
2022-09-05T06:31:29.207Z,15.65
2022-09-05T06:33:43.611Z,15.69
2022-09-05T06:36:18.577Z,15.73
2022-09-05T06:39:15.309Z,15.84
2022-09-05T06:41:57.645Z,15.96
2022-09-05T06:44:48.648Z,16.04
2022-09-05T06:47:32.527Z,16.21
2022-09-05T06:50:23.827Z,16.33
2022-09-05T06:53:21.083Z,16.40
2022-09-05T06:56:10.214Z,16.46
2022-09-05T06:58:56.223Z,16.63
2022-09-05T07:01:39.970Z,16.79
2022-09-05T07:04:21.059Z,16.94
2022-09-05T07:07:01.769Z,17.04
2022-09-05T07:09:32.444Z,17.07
2022-09-05T07:12:21.552Z,17.17
2022-09-05T07:14:57.273Z,17.05
2022-09-05T07:18:08.565Z,17.29
2022-09-05T07:20:24.844Z,17.07
2022-09-05T07:23:38.309Z,17.23
2022-09-05T07:25:37.617Z,17.15
2022-09-05T07:28:29.329Z,17.46
2022-09-05T07:30:51.129Z,17.46
2022-09-05T07:33:26.563Z,17.46
2022-09-05T07:35:59.596Z,17.38
2022-09-05T07:38:48.989Z,17.43
2022-09-05T07:41:15.557Z,17.72
2022-09-05T07:43:48.237Z,17.80
2022-09-05T07:46:21.089Z,18.06
2022-09-05T07:49:03.009Z,17.87
2022-09-05T07:56:50.218Z,18.14
2022-09-05T07:57:08.067Z,18.20
2022-09-05T07:59:37.879Z,18.20
2022-09-05T08:02:10.191Z,18.29
2022-09-05T08:04:42.360Z,18.57
2022-09-05T08:07:50.080Z,18.73
2022-09-05T08:10:09.245Z,18.57
2022-09-05T08:12:51.908Z,19.36
2022-09-05T08:15:16.435Z,19.83
2022-09-05T08:18:10.515Z,20.20
2022-09-05T08:21:03.632Z,20.63
2022-09-05T08:24:05.609Z,21.10
2022-09-05T08:26:52.887Z,21.00
2022-09-05T08:29:34.192Z,20.87
2022-09-05T08:32:18.691Z,21.22
2022-09-05T08:35:01.397Z,21.28
2022-09-05T08:37:33.856Z,21.26
2022-09-05T08:40:11.082Z,20.98
2022-09-05T08:43:38.044Z,21.28
2022-09-05T08:46:40.020Z,21.55
2022-09-05T08:48:15.356Z,21.79
2022-09-05T08:50:54.455Z,21.86
2022-09-05T08:53:58.374Z,22.00
2022-09-05T08:56:48.738Z,22.22
2022-09-05T08:59:32.720Z,21.55
2022-09-05T09:02:30.286Z,22.22
2022-09-05T09:05:01.875Z,22.41
2022-09-05T09:07:51.259Z,22.52
2022-09-05T09:10:25.982Z,22.44
2022-09-05T09:13:06.900Z,22.24
2022-09-05T09:16:07.129Z,21.84
2022-09-05T09:18:51.687Z,22.16
2022-09-05T09:21:36.655Z,22.70
2022-09-05T09:24:27.868Z,22.33
2022-09-05T09:27:12.979Z,22.57
2022-09-05T09:29:45.154Z,22.57
2022-09-05T09:32:24.411Z,22.24
2022-09-05T09:35:00.197Z,22.53
2022-09-05T09:37:59.359Z,22.35
2022-09-05T09:41:02.208Z,23.06
2022-09-05T09:43:35.892Z,22.88
2022-09-05T09:46:18.138Z,23.06
2022-09-05T09:49:22.502Z,23.06
2022-09-05T09:51:56.429Z,23.22
2022-09-05T09:54:53.479Z,23.31
2022-09-05T09:57:44.486Z,23.03
2022-09-05T10:00:21.737Z,22.94
2022-09-05T10:10:36.375Z,22.65
2022-09-05T10:10:48.838Z,23.58
2022-09-05T10:10:52.850Z,23.47
2022-09-05T10:14:49.167Z,23.44
2022-09-05T10:17:26.503Z,23.44
2022-09-05T10:20:29.186Z,23.23
2022-09-05T10:23:24.127Z,22.97
2022-09-05T10:26:11.687Z,22.41
2022-09-05T10:29:37.021Z,22.18
2022-09-05T10:33:58.364Z,22.18
2022-09-05T10:35:18.065Z,22.37
2022-09-05T10:37:07.431Z,23.10
2022-09-05T10:39:40.509Z,23.38
2022-09-05T10:42:16.715Z,22.87
2022-09-05T10:44:57.430Z,23.12
2022-09-05T10:47:48.431Z,23.57
2022-09-05T10:50:29.933Z,23.93
2022-09-05T10:53:06.532Z,24.07
2022-09-05T10:56:02.143Z,23.65
2022-09-05T10:59:24.691Z,22.59
2022-09-05T11:02:26.702Z,23.06
2022-09-05T11:04:00.658Z,23.06
2022-09-05T11:06:46.104Z,23.25
2022-09-05T11:09:27.999Z,23.45
2022-09-05T11:12:06.043Z,23.99
2022-09-05T11:14:47.496Z,23.66
2022-09-05T11:17:20.172Z,23.40
2022-09-05T11:19:53.029Z,23.57
2022-09-05T11:22:25.533Z,24.08
2022-09-05T11:24:58.726Z,24.37
2022-09-05T11:27:37.954Z,24.80
2022-09-05T11:30:28.550Z,24.30
2022-09-05T11:38:40.889Z,24.07
2022-09-05T11:39:55.489Z,24.48
2022-09-05T11:40:10.956Z,23.92
2022-09-05T11:41:38.828Z,23.95
2022-09-05T11:44:27.321Z,24.24
2022-09-05T11:47:27.229Z,24.42
2022-09-05T11:49:59.654Z,24.03
2022-09-05T11:52:59.522Z,23.80
2022-09-05T11:55:38.874Z,23.52
2022-09-05T11:58:45.120Z,23.19
2022-09-05T12:01:41.286Z,23.47
2022-09-05T12:04:21.672Z,23.46
2022-09-05T12:07:27.026Z,23.57
2022-09-05T12:09:50.751Z,22.74
2022-09-05T12:12:41.698Z,23.21
2022-09-05T12:15:26.686Z,23.03
2022-09-05T12:18:19.568Z,23.88
2022-09-05T12:20:52.298Z,23.72
2022-09-05T12:24:11.618Z,23.95
2022-09-05T12:27:39.513Z,24.63
2022-09-05T12:29:46.976Z,23.82
2022-09-05T12:32:49.461Z,23.86
2022-09-05T12:36:09.946Z,23.75
2022-09-05T12:40:28.688Z,23.79
2022-09-05T12:41:32.073Z,23.85
2022-09-05T12:44:36.483Z,23.57
2022-09-05T12:48:43.524Z,24.15
2022-09-05T12:51:45.840Z,24.15
2022-09-05T12:53:57.517Z,24.11
2022-09-05T13:00:54.076Z,24.15
2022-09-05T13:03:00.950Z,24.61
2022-09-05T13:03:15.335Z,24.48
2022-09-05T13:04:47.433Z,24.02
2022-09-05T13:07:21.053Z,23.95
2022-09-05T13:10:26.231Z,23.37
2022-09-05T13:14:58.896Z,23.74
2022-09-05T13:15:27.276Z,24.21
2022-09-05T13:18:15.607Z,24.13
2022-09-05T13:20:51.599Z,24.07
2022-09-05T13:23:39.092Z,23.75
2022-09-05T13:26:21.941Z,23.98
2022-09-05T13:29:09.910Z,23.74
2022-09-05T13:38:04.721Z,23.82
2022-09-05T13:38:06.155Z,23.58
2022-09-05T13:38:13.079Z,23.81
2022-09-05T13:39:56.237Z,24.11
2022-09-05T13:42:30.421Z,24.04
2022-09-05T13:45:02.658Z,24.02
2022-09-05T13:47:44.856Z,23.29
2022-09-05T13:50:39.911Z,23.79
2022-09-05T13:53:31.117Z,23.58
2022-09-05T13:56:16.380Z,24.06
2022-09-05T13:58:57.330Z,23.51
2022-09-05T14:01:52.567Z,23.69
2022-09-05T14:09:54.472Z,23.45
2022-09-05T14:12:39.215Z,23.97
2022-09-05T14:15:14.123Z,23.99
2022-09-05T14:18:01.555Z,23.65
2022-09-05T14:20:52.501Z,23.97
2022-09-05T14:23:26.435Z,24.17
2022-09-05T14:26:02.300Z,24.17
2022-09-05T14:28:41.711Z,24.04
2022-09-05T14:33:19.192Z,24.10
2022-09-05T14:37:41.899Z,23.29
2022-09-05T14:37:54.946Z,24.00
2022-09-05T14:39:27.474Z,23.29
2022-09-05T14:42:10.094Z,23.62
2022-09-05T14:45:07.690Z,23.75
2022-09-05T14:47:59.841Z,23.53
2022-09-05T14:50:42.062Z,23.25
2022-09-05T14:56:56.406Z,23.47
2022-09-05T15:02:42.924Z,23.30
2022-09-05T15:02:56.991Z,23.24
2022-09-05T15:06:28.183Z,22.70
2022-09-05T15:11:42.663Z,22.48
2022-09-05T15:12:21.895Z,22.09
2022-09-05T15:14:11.237Z,22.09
2022-09-05T15:16:43.858Z,22.14
2022-09-05T15:19:16.603Z,22.21
2022-09-05T15:21:46.498Z,21.99
2022-09-05T15:24:31.710Z,21.97
2022-09-05T15:27:04.449Z,21.97
2022-09-05T15:29:36.224Z,21.88
2022-09-05T15:32:22.583Z,22.06
2022-09-05T15:34:55.967Z,22.10
2022-09-05T15:37:41.165Z,22.03
2022-09-05T15:40:22.806Z,21.99
2022-09-05T15:42:57.305Z,22.06
2022-09-05T15:45:36.114Z,22.05
2022-09-05T15:48:21.694Z,21.75
2022-09-05T15:50:56.318Z,21.90
2022-09-05T15:53:36.714Z,21.84
2022-09-05T15:56:16.530Z,21.84
2022-09-05T15:58:57.982Z,21.80
2022-09-05T16:01:59.191Z,21.70
2022-09-05T16:07:59.856Z,21.61
2022-09-05T16:10:31.484Z,21.25
2022-09-05T16:10:48.951Z,21.25
2022-09-05T16:12:17.190Z,21.04
2022-09-05T16:14:24.802Z,21.04
2022-09-05T16:23:11.953Z,21.13
2022-09-05T16:23:25.483Z,20.97
2022-09-05T16:23:26.990Z,20.77
2022-09-05T16:25:28.733Z,20.86
2022-09-05T16:28:04.470Z,20.73
2022-09-05T16:30:37.185Z,20.69
2022-09-05T16:33:12.833Z,20.58
2022-09-05T16:36:00.469Z,20.45
2022-09-05T16:38:51.443Z,20.37
2022-09-05T16:41:24.784Z,20.26
2022-09-05T16:43:57.675Z,20.22
2022-09-05T16:46:36.443Z,20.21
2022-09-05T16:49:42.345Z,20.12
2022-09-05T16:51:59.151Z,20.00
2022-09-05T16:54:40.908Z,19.89
2022-09-05T16:57:22.804Z,19.84
2022-09-05T16:59:53.328Z,19.70
2022-09-05T17:02:26.553Z,19.65
2022-09-05T17:05:14.661Z,19.49
2022-09-05T17:07:53.530Z,19.53
2022-09-05T17:10:29.013Z,19.40
2022-09-05T17:12:59.398Z,19.17
2022-09-05T17:15:31.973Z,18.90
2022-09-05T17:18:22.046Z,18.86
2022-09-05T17:20:49.901Z,18.75
2022-09-05T17:29:17.075Z,18.50
2022-09-05T17:29:23.470Z,18.30
2022-09-05T17:29:26.999Z,18.41
2022-09-05T17:34:19.605Z,17.91
2022-09-05T17:36:58.611Z,17.89
2022-09-05T17:39:46.753Z,17.89
2022-09-05T17:42:41.533Z,17.82
2022-09-05T17:45:20.329Z,17.74
2022-09-05T17:47:53.594Z,17.60
2022-09-05T17:50:34.822Z,17.57
2022-09-05T17:53:25.123Z,17.48
2022-09-05T17:55:47.571Z,17.42
2022-09-05T17:58:50.250Z,17.37
2022-09-05T18:01:26.890Z,17.35
2022-09-05T18:04:16.761Z,17.26
2022-09-05T18:06:52.825Z,17.22
2022-09-05T18:09:48.058Z,17.13
2022-09-05T18:13:13.870Z,16.86
2022-09-05T18:15:10.034Z,16.86
2022-09-05T18:17:44.570Z,16.85
2022-09-05T18:20:33.381Z,16.81
2022-09-05T18:23:18.251Z,16.81
2022-09-05T18:25:56.914Z,16.38
2022-09-05T18:28:34.813Z,16.38
2022-09-05T18:31:42.744Z,16.17
2022-09-05T18:34:24.475Z,16.17
2022-09-05T18:36:56.823Z,16.14
2022-09-05T18:39:37.212Z,16.07
2022-09-05T18:42:26.588Z,16.22
2022-09-05T18:44:59.681Z,15.93
2022-09-05T18:47:34.736Z,15.93
2022-09-05T18:50:25.674Z,15.90
2022-09-05T18:52:43.184Z,15.89
2022-09-05T18:56:08.973Z,15.88
2022-09-05T18:57:58.922Z,15.76
2022-09-05T19:00:44.624Z,15.58
2022-09-05T19:03:24.778Z,15.58
2022-09-05T19:06:34.309Z,15.79
2022-09-05T19:08:32.348Z,15.71
2022-09-05T19:11:09.231Z,15.59
2022-09-05T19:13:39.843Z,15.46
2022-09-05T19:16:42.290Z,15.46
2022-09-05T19:19:18.647Z,15.23
2022-09-05T19:22:54.517Z,15.32
2022-09-05T19:24:45.088Z,15.17
2022-09-05T19:28:09.637Z,15.15
2022-09-05T19:36:45.970Z,15.23
2022-09-05T19:36:47.059Z,15.10
2022-09-05T19:37:02.706Z,15.04
2022-09-05T19:37:28.895Z,15.03
2022-09-05T19:46:21.099Z,15.00
2022-09-05T19:47:34.563Z,15.00
2022-09-05T19:47:36.822Z,14.88
2022-09-05T19:48:03.821Z,14.83
2022-09-05T19:50:11.514Z,14.97
2022-09-05T19:52:41.358Z,14.84
2022-09-05T19:55:22.766Z,14.67
2022-09-05T19:58:05.103Z,14.91
2022-09-05T20:00:27.884Z,14.78
2022-09-05T20:03:00.965Z,14.53
2022-09-05T20:05:31.249Z,14.62
2022-09-05T20:08:02.013Z,14.59
2022-09-05T20:10:34.625Z,14.10
2022-09-05T20:13:24.096Z,14.11
2022-09-05T20:15:54.214Z,13.89
2022-09-05T20:18:30.129Z,13.89
2022-09-05T20:21:08.869Z,13.67
2022-09-05T20:23:41.675Z,13.66
2022-09-05T20:26:12.967Z,13.64
2022-09-05T20:28:43.345Z,13.63
2022-09-05T20:31:22.568Z,13.63
2022-09-05T20:33:58.489Z,13.58
2022-09-05T20:43:17.392Z,13.67
2022-09-05T20:43:35.103Z,13.67
2022-09-05T20:43:35.830Z,13.67
2022-09-05T20:44:25.279Z,13.61
2022-09-05T20:49:02.450Z,13.51
2022-09-05T20:54:14.957Z,13.37
2022-09-05T20:54:21.144Z,13.44
2022-09-05T20:55:38.559Z,13.43
2022-09-05T20:57:48.287Z,13.44
2022-09-05T21:00:22.935Z,13.48
2022-09-05T21:02:58.884Z,13.45
2022-09-05T21:05:38.906Z,13.51
2022-09-05T21:08:26.731Z,13.51
2022-09-05T21:10:58.724Z,13.38
2022-09-05T21:13:31.603Z,13.51
2022-09-05T21:16:03.976Z,13.51
2022-09-05T21:18:34.790Z,13.39
2022-09-05T21:21:29.467Z,13.41
2022-09-05T21:23:40.350Z,13.40
2022-09-05T21:26:27.674Z,13.39
2022-09-05T21:29:18.292Z,13.40
2022-09-05T21:31:54.472Z,13.45
2022-09-05T21:34:23.739Z,13.35
2022-09-05T21:37:07.206Z,13.39
2022-09-05T21:39:33.503Z,13.36
2022-09-05T21:42:18.582Z,13.52
2022-09-05T21:47:46.101Z,13.42
2022-09-05T21:47:49.091Z,13.48
2022-09-05T21:49:40.905Z,13.53
2022-09-05T21:52:11.681Z,13.38
2022-09-05T21:59:16.840Z,13.46
2022-09-05T21:59:26.708Z,13.50
2022-09-05T21:59:51.111Z,13.46
2022-09-05T22:02:21.435Z,13.50
2022-09-05T22:04:53.055Z,13.61
2022-09-05T22:07:32.935Z,13.60
2022-09-05T22:09:55.656Z,13.58
2022-09-05T22:12:30.229Z,13.58
2022-09-05T22:15:17.726Z,13.53
2022-09-05T22:17:32.563Z,13.54
2022-09-05T22:20:04.970Z,13.56
2022-09-05T22:22:38.109Z,13.50
2022-09-05T22:25:14.732Z,13.50
2022-09-05T22:27:45.956Z,13.48
2022-09-05T22:30:14.790Z,13.43
2022-09-05T22:32:44.218Z,13.33
2022-09-05T22:35:16.011Z,13.23
2022-09-05T22:37:47.965Z,13.33
2022-09-05T22:40:18.650Z,13.33
2022-09-05T22:42:51.224Z,13.41
2022-09-05T22:45:20.749Z,13.44
2022-09-05T22:47:50.641Z,13.51
2022-09-05T22:50:20.837Z,13.59
2022-09-05T22:52:50.707Z,13.65
2022-09-05T22:59:38.922Z,13.92
2022-09-05T23:02:08.793Z,14.00
2022-09-05T23:04:38.686Z,14.16
2022-09-05T23:07:08.521Z,14.31
2022-09-05T23:09:38.849Z,14.33
2022-09-05T23:12:08.760Z,14.43
2022-09-05T23:14:38.580Z,14.47
2022-09-05T23:17:08.354Z,14.52
2022-09-05T23:19:38.195Z,14.52
2022-09-05T23:22:08.029Z,14.50
2022-09-05T23:24:39.378Z,14.54
2022-09-05T23:27:09.079Z,14.70
2022-09-05T23:29:39.274Z,14.69
2022-09-05T23:32:10.077Z,14.77
2022-09-05T23:34:40.043Z,14.68
2022-09-05T23:37:11.207Z,14.65
2022-09-05T23:39:41.073Z,14.74
2022-09-05T23:42:11.492Z,14.74
2022-09-05T23:44:43.355Z,14.60
2022-09-05T23:47:13.315Z,14.68
2022-09-05T23:49:43.235Z,14.68
2022-09-05T23:52:12.957Z,14.58
2022-09-05T23:54:42.750Z,14.48
2022-09-05T23:57:12.666Z,14.62
2022-09-05T23:59:42.455Z,14.60
